sensor_id;sensor_type;location;lat;lon;timestamp;temperature;humidity
27795;DHT22;15176;50.844;4.412;2023-04-03T00:02:07;8.60;99.90
27795;DHT22;15176;50.844;4.412;2023-04-03T00:04:32;8.70;99.90
27795;DHT22;15176;50.844;4.412;2023-04-03T00:06:58;8.70;99.90
27795;DHT22;15176;50.844;4.412;2023-04-03T00:09:24;8.80;99.90
27795;DHT22;15176;50.844;4.412;2023-04-03T00:11:49;8.90;99.90
27795;DHT22;15176;50.844;4.412;2023-04-03T00:14:15;8.80;99.90
27795;DHT22;15176;50.844;4.412;2023-04-03T00:16:41;8.80;99.90
27795;DHT22;15176;50.844;4.412;2023-04-03T00:19:06;8.70;99.90
27795;DHT22;15176;50.844;4.412;2023-04-03T00:21:32;8.80;99.90
27795;DHT22;15176;50.844;4.412;2023-04-03T00:23:58;9.00;99.90
27795;DHT22;15176;50.844;4.412;2023-04-03T00:26:23;8.80;99.90
27795;DHT22;15176;50.844;4.412;2023-04-03T00:28:49;8.80;99.90
27795;DHT22;15176;50.844;4.412;2023-04-03T00:31:15;8.60;99.90
27795;DHT22;15176;50.844;4.412;2023-04-03T00:33:41;8.50;99.90
27795;DHT22;15176;50.844;4.412;2023-04-03T00:36:09;8.50;99.90
27795;DHT22;15176;50.844;4.412;2023-04-03T00:38:35;8.30;99.90
27795;DHT22;15176;50.844;4.412;2023-04-03T00:41:00;8.10;99.90
27795;DHT22;15176;50.844;4.412;2023-04-03T00:43:26;8.30;99.90
27795;DHT22;15176;50.844;4.412;2023-04-03T00:45:57;8.40;99.90
27795;DHT22;15176;50.844;4.412;2023-04-03T00:48:34;8.60;99.90
27795;DHT22;15176;50.844;4.412;2023-04-03T00:51:03;8.30;99.90
27795;DHT22;15176;50.844;4.412;2023-04-03T00:53:33;8.30;99.90
27795;DHT22;15176;50.844;4.412;2023-04-03T00:56:00;8.20;99.90
27795;DHT22;15176;50.844;4.412;2023-04-03T01:01:13;8.20;99.90
27795;DHT22;15176;50.844;4.412;2023-04-03T01:03:40;8.00;99.90
27795;DHT22;15176;50.844;4.412;2023-04-03T01:06:06;8.10;99.90
27795;DHT22;15176;50.844;4.412;2023-04-03T01:08:32;8.10;99.90
27795;DHT22;15176;50.844;4.412;2023-04-03T01:10:57;8.20;99.90
27795;DHT22;15176;50.844;4.412;2023-04-03T01:13:29;7.90;99.90
27795;DHT22;15176;50.844;4.412;2023-04-03T01:15:56;7.80;99.90
27795;DHT22;15176;50.844;4.412;2023-04-03T01:18:24;7.70;99.90
27795;DHT22;15176;50.844;4.412;2023-04-03T01:24:25;7.90;99.90
27795;DHT22;15176;50.844;4.412;2023-04-03T01:26:40;8.10;99.90
27795;DHT22;15176;50.844;4.412;2023-04-03T01:29:07;8.00;99.90
27795;DHT22;15176;50.844;4.412;2023-04-03T01:34:02;7.80;99.90
27795;DHT22;15176;50.844;4.412;2023-04-03T01:36:29;7.80;99.90
27795;DHT22;15176;50.844;4.412;2023-04-03T01:38:56;7.90;99.90
27795;DHT22;15176;50.844;4.412;2023-04-03T01:41:24;7.90;99.90
27795;DHT22;15176;50.844;4.412;2023-04-03T01:43:51;7.90;99.90
27795;DHT22;15176;50.844;4.412;2023-04-03T01:46:17;7.90;99.90
27795;DHT22;15176;50.844;4.412;2023-04-03T01:48:43;8.10;99.90
27795;DHT22;15176;50.844;4.412;2023-04-03T01:51:09;7.90;99.90
27795;DHT22;15176;50.844;4.412;2023-04-03T01:53:34;8.00;99.90
27795;DHT22;15176;50.844;4.412;2023-04-03T01:56:00;8.00;99.90
27795;DHT22;15176;50.844;4.412;2023-04-03T01:58:26;7.90;99.90
27795;DHT22;15176;50.844;4.412;2023-04-03T02:00:52;7.90;99.90
27795;DHT22;15176;50.844;4.412;2023-04-03T02:03:18;8.10;99.90
27795;DHT22;15176;50.844;4.412;2023-04-03T02:05:44;8.00;99.90
27795;DHT22;15176;50.844;4.412;2023-04-03T02:08:10;8.10;99.90
27795;DHT22;15176;50.844;4.412;2023-04-03T02:10:39;7.90;99.90
27795;DHT22;15176;50.844;4.412;2023-04-03T02:13:05;7.90;99.90
27795;DHT22;15176;50.844;4.412;2023-04-03T02:15:30;7.80;99.90
27795;DHT22;15176;50.844;4.412;2023-04-03T02:17:56;7.70;99.90
27795;DHT22;15176;50.844;4.412;2023-04-03T02:20:22;7.80;99.90
27795;DHT22;15176;50.844;4.412;2023-04-03T02:22:47;7.90;99.90
27795;DHT22;15176;50.844;4.412;2023-04-03T02:25:13;7.80;99.90
27795;DHT22;15176;50.844;4.412;2023-04-03T02:27:39;7.70;99.90
27795;DHT22;15176;50.844;4.412;2023-04-03T02:30:05;7.70;99.90
27795;DHT22;15176;50.844;4.412;2023-04-03T02:32:31;7.70;99.90
27795;DHT22;15176;50.844;4.412;2023-04-03T02:34:57;7.60;99.90
27795;DHT22;15176;50.844;4.412;2023-04-03T02:37:23;7.70;99.90
27795;DHT22;15176;50.844;4.412;2023-04-03T02:39:49;7.50;99.90
27795;DHT22;15176;50.844;4.412;2023-04-03T02:42:14;7.00;99.90
27795;DHT22;15176;50.844;4.412;2023-04-03T02:44:40;6.90;99.90
27795;DHT22;15176;50.844;4.412;2023-04-03T02:47:05;7.10;99.90
27795;DHT22;15176;50.844;4.412;2023-04-03T02:49:31;7.00;99.90
27795;DHT22;15176;50.844;4.412;2023-04-03T02:51:57;7.10;99.90
27795;DHT22;15176;50.844;4.412;2023-04-03T02:54:23;7.30;99.90
27795;DHT22;15176;50.844;4.412;2023-04-03T02:56:50;7.50;99.90
27795;DHT22;15176;50.844;4.412;2023-04-03T02:59:16;7.40;99.90
27795;DHT22;15176;50.844;4.412;2023-04-03T03:01:42;7.50;99.90
27795;DHT22;15176;50.844;4.412;2023-04-03T03:04:07;7.30;99.90
27795;DHT22;15176;50.844;4.412;2023-04-03T03:06:33;7.40;99.90
27795;DHT22;15176;50.844;4.412;2023-04-03T03:09:00;7.50;99.90
27795;DHT22;15176;50.844;4.412;2023-04-03T03:11:25;7.40;99.90
27795;DHT22;15176;50.844;4.412;2023-04-03T03:13:51;7.40;99.90
27795;DHT22;15176;50.844;4.412;2023-04-03T03:16:17;7.30;99.90
27795;DHT22;15176;50.844;4.412;2023-04-03T03:18:42;7.20;99.90
27795;DHT22;15176;50.844;4.412;2023-04-03T03:21:09;7.30;99.90
27795;DHT22;15176;50.844;4.412;2023-04-03T03:23:36;7.30;99.90
27795;DHT22;15176;50.844;4.412;2023-04-03T03:26:04;7.20;99.90
27795;DHT22;15176;50.844;4.412;2023-04-03T03:28:31;7.20;99.90
27795;DHT22;15176;50.844;4.412;2023-04-03T03:30:57;7.30;99.90
27795;DHT22;15176;50.844;4.412;2023-04-03T03:33:23;7.30;99.90
27795;DHT22;15176;50.844;4.412;2023-04-03T03:35:49;7.10;99.90
27795;DHT22;15176;50.844;4.412;2023-04-03T03:38:15;7.10;99.90
27795;DHT22;15176;50.844;4.412;2023-04-03T03:40:41;7.10;99.90
27795;DHT22;15176;50.844;4.412;2023-04-03T03:43:06;7.10;99.90
27795;DHT22;15176;50.844;4.412;2023-04-03T03:45:32;7.10;99.90
27795;DHT22;15176;50.844;4.412;2023-04-03T03:47:58;7.10;99.90
27795;DHT22;15176;50.844;4.412;2023-04-03T03:50:23;7.10;99.90
27795;DHT22;15176;50.844;4.412;2023-04-03T03:52:49;7.20;99.90
27795;DHT22;15176;50.844;4.412;2023-04-03T03:55:15;7.20;99.90
27795;DHT22;15176;50.844;4.412;2023-04-03T03:57:40;7.30;99.90
27795;DHT22;15176;50.844;4.412;2023-04-03T04:00:07;7.30;99.90
27795;DHT22;15176;50.844;4.412;2023-04-03T04:02:34;7.20;99.90
27795;DHT22;15176;50.844;4.412;2023-04-03T04:04:59;7.20;99.90
27795;DHT22;15176;50.844;4.412;2023-04-03T04:07:25;7.10;99.90
27795;DHT22;15176;50.844;4.412;2023-04-03T04:09:53;7.10;99.90
27795;DHT22;15176;50.844;4.412;2023-04-03T04:12:19;7.20;99.90
27795;DHT22;15176;50.844;4.412;2023-04-03T04:14:45;7.10;99.90
27795;DHT22;15176;50.844;4.412;2023-04-03T04:17:12;7.10;99.90
27795;DHT22;15176;50.844;4.412;2023-04-03T04:19:38;7.10;99.90
27795;DHT22;15176;50.844;4.412;2023-04-03T04:22:03;6.80;99.90
27795;DHT22;15176;50.844;4.412;2023-04-03T04:24:29;6.90;99.90
27795;DHT22;15176;50.844;4.412;2023-04-03T04:26:55;6.90;99.90
27795;DHT22;15176;50.844;4.412;2023-04-03T04:29:20;7.00;99.90
27795;DHT22;15176;50.844;4.412;2023-04-03T04:31:46;7.00;99.90
27795;DHT22;15176;50.844;4.412;2023-04-03T04:34:12;7.20;99.90
27795;DHT22;15176;50.844;4.412;2023-04-03T04:36:39;7.20;99.90
27795;DHT22;15176;50.844;4.412;2023-04-03T04:39:05;7.10;99.90
27795;DHT22;15176;50.844;4.412;2023-04-03T04:41:31;7.00;99.90
27795;DHT22;15176;50.844;4.412;2023-04-03T04:43:57;7.00;99.90
27795;DHT22;15176;50.844;4.412;2023-04-03T04:46:22;7.00;99.90
27795;DHT22;15176;50.844;4.412;2023-04-03T04:48:48;6.90;99.90
27795;DHT22;15176;50.844;4.412;2023-04-03T04:51:14;6.90;99.90
27795;DHT22;15176;50.844;4.412;2023-04-03T04:53:40;7.10;99.90
27795;DHT22;15176;50.844;4.412;2023-04-03T04:56:06;7.10;99.90
27795;DHT22;15176;50.844;4.412;2023-04-03T04:58:32;7.10;99.90
27795;DHT22;15176;50.844;4.412;2023-04-03T05:01:05;6.90;99.90
27795;DHT22;15176;50.844;4.412;2023-04-03T05:03:31;6.90;99.90
27795;DHT22;15176;50.844;4.412;2023-04-03T05:05:57;6.90;99.90
27795;DHT22;15176;50.844;4.412;2023-04-03T05:08:23;7.00;99.90
27795;DHT22;15176;50.844;4.412;2023-04-03T05:10:49;6.90;99.90
27795;DHT22;15176;50.844;4.412;2023-04-03T05:13:14;6.90;99.90
27795;DHT22;15176;50.844;4.412;2023-04-03T05:15:40;6.70;99.90
27795;DHT22;15176;50.844;4.412;2023-04-03T05:18:06;6.80;99.90
27795;DHT22;15176;50.844;4.412;2023-04-03T05:20:32;6.70;99.90
27795;DHT22;15176;50.844;4.412;2023-04-03T05:22:58;6.70;99.90
27795;DHT22;15176;50.844;4.412;2023-04-03T05:25:24;6.70;99.90
27795;DHT22;15176;50.844;4.412;2023-04-03T05:27:50;6.70;99.90
27795;DHT22;15176;50.844;4.412;2023-04-03T05:30:16;6.70;99.90
27795;DHT22;15176;50.844;4.412;2023-04-03T05:32:42;6.60;99.90
27795;DHT22;15176;50.844;4.412;2023-04-03T05:35:08;6.50;99.90
27795;DHT22;15176;50.844;4.412;2023-04-03T05:37:34;6.50;99.90
27795;DHT22;15176;50.844;4.412;2023-04-03T05:40:00;6.70;99.90
27795;DHT22;15176;50.844;4.412;2023-04-03T05:42:26;6.70;99.90
27795;DHT22;15176;50.844;4.412;2023-04-03T05:44:52;6.80;99.90
27795;DHT22;15176;50.844;4.412;2023-04-03T05:47:18;6.90;99.90
27795;DHT22;15176;50.844;4.412;2023-04-03T05:49:44;7.00;99.90
27795;DHT22;15176;50.844;4.412;2023-04-03T05:52:22;7.00;99.90
27795;DHT22;15176;50.844;4.412;2023-04-03T05:54:49;6.90;99.90
27795;DHT22;15176;50.844;4.412;2023-04-03T05:57:15;6.90;99.90
27795;DHT22;15176;50.844;4.412;2023-04-03T05:59:42;6.90;99.90
27795;DHT22;15176;50.844;4.412;2023-04-03T06:02:14;7.00;99.90
27795;DHT22;15176;50.844;4.412;2023-04-03T06:04:40;7.10;99.90
27795;DHT22;15176;50.844;4.412;2023-04-03T06:07:07;7.10;99.90
27795;DHT22;15176;50.844;4.412;2023-04-03T06:09:34;7.20;99.90
27795;DHT22;15176;50.844;4.412;2023-04-03T06:12:00;7.00;99.90
27795;DHT22;15176;50.844;4.412;2023-04-03T06:14:27;7.10;99.90
27795;DHT22;15176;50.844;4.412;2023-04-03T06:16:53;7.10;99.90
27795;DHT22;15176;50.844;4.412;2023-04-03T06:19:19;6.80;99.90
27795;DHT22;15176;50.844;4.412;2023-04-03T06:21:46;6.70;99.90
27795;DHT22;15176;50.844;4.412;2023-04-03T06:24:15;6.70;99.90
27795;DHT22;15176;50.844;4.412;2023-04-03T06:26:41;6.80;99.90
27795;DHT22;15176;50.844;4.412;2023-04-03T06:29:06;7.00;99.90
27795;DHT22;15176;50.844;4.412;2023-04-03T06:31:32;7.30;99.90
27795;DHT22;15176;50.844;4.412;2023-04-03T06:33:58;7.30;99.90
27795;DHT22;15176;50.844;4.412;2023-04-03T06:36:25;7.30;99.90
27795;DHT22;15176;50.844;4.412;2023-04-03T06:38:51;7.40;99.90
27795;DHT22;15176;50.844;4.412;2023-04-03T06:41:17;7.20;99.90
27795;DHT22;15176;50.844;4.412;2023-04-03T06:43:45;7.10;99.90
27795;DHT22;15176;50.844;4.412;2023-04-03T06:46:16;7.40;99.90
27795;DHT22;15176;50.844;4.412;2023-04-03T06:48:43;7.90;99.90
27795;DHT22;15176;50.844;4.412;2023-04-03T06:51:35;8.30;99.90
27795;DHT22;15176;50.844;4.412;2023-04-03T06:54:01;8.40;99.90
27795;DHT22;15176;50.844;4.412;2023-04-03T06:56:27;8.80;99.90
27795;DHT22;15176;50.844;4.412;2023-04-03T06:58:54;9.10;99.90
27795;DHT22;15176;50.844;4.412;2023-04-03T07:01:21;9.10;99.90
27795;DHT22;15176;50.844;4.412;2023-04-03T07:03:48;9.30;99.90
27795;DHT22;15176;50.844;4.412;2023-04-03T07:06:15;9.40;99.90
27795;DHT22;15176;50.844;4.412;2023-04-03T07:08:42;9.70;99.90
27795;DHT22;15176;50.844;4.412;2023-04-03T07:11:10;9.90;99.90
27795;DHT22;15176;50.844;4.412;2023-04-03T07:13:36;10.20;99.90
27795;DHT22;15176;50.844;4.412;2023-04-03T07:16:03;10.20;99.90
27795;DHT22;15176;50.844;4.412;2023-04-03T07:18:31;10.40;99.90
27795;DHT22;15176;50.844;4.412;2023-04-03T07:20:57;10.60;99.90
27795;DHT22;15176;50.844;4.412;2023-04-03T07:23:22;10.50;99.90
27795;DHT22;15176;50.844;4.412;2023-04-03T07:25:49;11.10;99.90
27795;DHT22;15176;50.844;4.412;2023-04-03T07:28:17;11.10;99.90
27795;DHT22;15176;50.844;4.412;2023-04-03T07:30:44;11.40;99.90
27795;DHT22;15176;50.844;4.412;2023-04-03T07:33:11;11.40;99.90
27795;DHT22;15176;50.844;4.412;2023-04-03T07:35:37;11.90;99.90
27795;DHT22;15176;50.844;4.412;2023-04-03T07:38:03;12.00;99.90
27795;DHT22;15176;50.844;4.412;2023-04-03T07:40:28;12.30;99.90
27795;DHT22;15176;50.844;4.412;2023-04-03T07:42:54;12.20;99.90
27795;DHT22;15176;50.844;4.412;2023-04-03T07:45:22;12.20;99.90
27795;DHT22;15176;50.844;4.412;2023-04-03T07:47:48;12.00;99.90
27795;DHT22;15176;50.844;4.412;2023-04-03T07:50:14;12.40;99.30
27795;DHT22;15176;50.844;4.412;2023-04-03T07:52:41;12.30;99.70
27795;DHT22;15176;50.844;4.412;2023-04-03T07:55:07;12.70;98.40
27795;DHT22;15176;50.844;4.412;2023-04-03T07:57:33;12.70;99.40
27795;DHT22;15176;50.844;4.412;2023-04-03T07:59:59;13.40;97.60
27795;DHT22;15176;50.844;4.412;2023-04-03T08:02:28;13.60;96.50
27795;DHT22;15176;50.844;4.412;2023-04-03T08:04:53;13.30;95.00
27795;DHT22;15176;50.844;4.412;2023-04-03T08:07:19;12.70;96.20
27795;DHT22;15176;50.844;4.412;2023-04-03T08:09:46;12.80;96.90
27795;DHT22;15176;50.844;4.412;2023-04-03T08:12:12;13.20;97.50
27795;DHT22;15176;50.844;4.412;2023-04-03T08:14:37;13.90;97.00
27795;DHT22;15176;50.844;4.412;2023-04-03T08:17:03;14.60;92.90
27795;DHT22;15176;50.844;4.412;2023-04-03T08:19:34;14.80;93.40
27795;DHT22;15176;50.844;4.412;2023-04-03T08:21:59;15.10;90.80
27795;DHT22;15176;50.844;4.412;2023-04-03T08:24:28;15.20;88.50
27795;DHT22;15176;50.844;4.412;2023-04-03T08:26:57;15.50;89.10
27795;DHT22;15176;50.844;4.412;2023-04-03T08:29:23;15.70;84.70
27795;DHT22;15176;50.844;4.412;2023-04-03T08:31:49;15.90;83.70
27795;DHT22;15176;50.844;4.412;2023-04-03T08:34:15;16.10;81.00
27795;DHT22;15176;50.844;4.412;2023-04-03T08:36:42;16.20;78.70
27795;DHT22;15176;50.844;4.412;2023-04-03T08:39:08;15.90;78.30
27795;DHT22;15176;50.844;4.412;2023-04-03T08:41:44;16.10;78.80
27795;DHT22;15176;50.844;4.412;2023-04-03T08:44:26;16.20;77.20
27795;DHT22;15176;50.844;4.412;2023-04-03T08:49:31;16.20;76.40
27795;DHT22;15176;50.844;4.412;2023-04-03T08:52:00;15.70;77.20
27795;DHT22;15176;50.844;4.412;2023-04-03T08:54:33;16.20;80.80
27795;DHT22;15176;50.844;4.412;2023-04-03T08:57:04;16.60;73.80
27795;DHT22;15176;50.844;4.412;2023-04-03T08:59:34;16.90;72.20
27795;DHT22;15176;50.844;4.412;2023-04-03T09:02:04;17.00;72.00
27795;DHT22;15176;50.844;4.412;2023-04-03T09:04:43;16.80;69.80
27795;DHT22;15176;50.844;4.412;2023-04-03T09:07:23;16.90;68.60
27795;DHT22;15176;50.844;4.412;2023-04-03T09:09:51;16.90;67.30
27795;DHT22;15176;50.844;4.412;2023-04-03T09:12:38;16.70;66.60
27795;DHT22;15176;50.844;4.412;2023-04-03T09:17:49;16.60;68.00
27795;DHT22;15176;50.844;4.412;2023-04-03T09:23:25;17.40;66.50
27795;DHT22;15176;50.844;4.412;2023-04-03T09:25:58;17.30;63.20
27795;DHT22;15176;50.844;4.412;2023-04-03T09:28:25;17.30;62.00
27795;DHT22;15176;50.844;4.412;2023-04-03T09:30:52;17.70;61.00
27795;DHT22;15176;50.844;4.412;2023-04-03T09:33:18;17.90;61.20
27795;DHT22;15176;50.844;4.412;2023-04-03T09:35:45;17.80;60.50
27795;DHT22;15176;50.844;4.412;2023-04-03T09:41:02;17.80;59.40
27795;DHT22;15176;50.844;4.412;2023-04-03T09:43:31;17.50;59.10
27795;DHT22;15176;50.844;4.412;2023-04-03T09:46:17;17.80;58.80
27795;DHT22;15176;50.844;4.412;2023-04-03T09:48:57;18.00;56.70
27795;DHT22;15176;50.844;4.412;2023-04-03T09:51:28;18.10;56.70
27795;DHT22;15176;50.844;4.412;2023-04-03T09:53:55;18.00;58.40
27795;DHT22;15176;50.844;4.412;2023-04-03T10:01:34;17.60;58.40
27795;DHT22;15176;50.844;4.412;2023-04-03T10:04:18;18.10;56.20
27795;DHT22;15176;50.844;4.412;2023-04-03T10:06:49;18.50;53.70
27795;DHT22;15176;50.844;4.412;2023-04-03T10:09:23;17.90;55.60
27795;DHT22;15176;50.844;4.412;2023-04-03T10:14:33;17.90;56.10
27795;DHT22;15176;50.844;4.412;2023-04-03T10:17:18;17.80;57.20
27795;DHT22;15176;50.844;4.412;2023-04-03T10:20:09;18.00;56.10
27795;DHT22;15176;50.844;4.412;2023-04-03T10:22:50;17.90;54.50
27795;DHT22;15176;50.844;4.412;2023-04-03T10:25:40;18.50;53.60
27795;DHT22;15176;50.844;4.412;2023-04-03T10:28:35;18.30;52.70
27795;DHT22;15176;50.844;4.412;2023-04-03T10:31:12;18.70;52.80
27795;DHT22;15176;50.844;4.412;2023-04-03T10:36:29;19.00;52.20
27795;DHT22;15176;50.844;4.412;2023-04-03T10:50:38;18.90;49.10
27795;DHT22;15176;50.844;4.412;2023-04-03T10:58:50;19.40;47.50
27795;DHT22;15176;50.844;4.412;2023-04-03T11:01:33;19.20;44.80
27795;DHT22;15176;50.844;4.412;2023-04-03T11:04:02;19.00;45.70
27795;DHT22;15176;50.844;4.412;2023-04-03T11:06:37;18.90;45.50
27795;DHT22;15176;50.844;4.412;2023-04-03T11:11:45;19.10;45.00
27795;DHT22;15176;50.844;4.412;2023-04-03T11:16:53;18.20;44.70
27795;DHT22;15176;50.844;4.412;2023-04-03T11:19:36;17.90;45.90
27795;DHT22;15176;50.844;4.412;2023-04-03T11:22:15;18.30;45.10
27795;DHT22;15176;50.844;4.412;2023-04-03T11:24:43;17.90;45.00
27795;DHT22;15176;50.844;4.412;2023-04-03T11:27:21;17.90;46.50
27795;DHT22;15176;50.844;4.412;2023-04-03T11:29:49;18.10;46.40
27795;DHT22;15176;50.844;4.412;2023-04-03T11:35:02;18.10;46.30
27795;DHT22;15176;50.844;4.412;2023-04-03T11:37:42;17.60;47.30
27795;DHT22;15176;50.844;4.412;2023-04-03T11:40:19;17.60;46.20
27795;DHT22;15176;50.844;4.412;2023-04-03T11:42:48;17.90;48.10
27795;DHT22;15176;50.844;4.412;2023-04-03T11:48:05;18.50;46.80
27795;DHT22;15176;50.844;4.412;2023-04-03T11:58:35;18.80;44.70
27795;DHT22;15176;50.844;4.412;2023-04-03T12:04:07;19.20;44.80
27795;DHT22;15176;50.844;4.412;2023-04-03T12:08:59;18.30;44.60
27795;DHT22;15176;50.844;4.412;2023-04-03T12:11:32;18.00;43.20
27795;DHT22;15176;50.844;4.412;2023-04-03T12:19:31;18.40;44.60
27795;DHT22;15176;50.844;4.412;2023-04-03T12:24:31;18.40;41.60
27795;DHT22;15176;50.844;4.412;2023-04-03T12:35:49;18.00;41.20
27795;DHT22;15176;50.844;4.412;2023-04-03T12:40:45;18.80;40.40
27795;DHT22;15176;50.844;4.412;2023-04-03T12:48:31;18.60;38.70
27795;DHT22;15176;50.844;4.412;2023-04-03T12:50:59;18.20;40.40
27795;DHT22;15176;50.844;4.412;2023-04-03T12:53:36;17.90;41.50
27795;DHT22;15176;50.844;4.412;2023-04-03T12:58:54;17.90;39.50
27795;DHT22;15176;50.844;4.412;2023-04-03T13:01:24;17.30;40.40
27795;DHT22;15176;50.844;4.412;2023-04-03T13:03:54;17.50;40.70
27795;DHT22;15176;50.844;4.412;2023-04-03T13:06:30;17.10;39.90
27795;DHT22;15176;50.844;4.412;2023-04-03T13:09:00;17.60;40.70
27795;DHT22;15176;50.844;4.412;2023-04-03T13:11:38;18.10;39.80
27795;DHT22;15176;50.844;4.412;2023-04-03T13:14:16;18.20;38.80
27795;DHT22;15176;50.844;4.412;2023-04-03T13:16:57;18.20;38.20
27795;DHT22;15176;50.844;4.412;2023-04-03T13:19:27;18.00;39.40
27795;DHT22;15176;50.844;4.412;2023-04-03T13:21:59;18.40;38.90
27795;DHT22;15176;50.844;4.412;2023-04-03T13:24:26;18.40;38.40
27795;DHT22;15176;50.844;4.412;2023-04-03T13:26:52;18.40;37.20
27795;DHT22;15176;50.844;4.412;2023-04-03T13:29:25;18.50;38.40
27795;DHT22;15176;50.844;4.412;2023-04-03T13:31:54;18.40;37.90
27795;DHT22;15176;50.844;4.412;2023-04-03T13:34:20;18.00;37.50
27795;DHT22;15176;50.844;4.412;2023-04-03T13:36:57;18.20;37.90
27795;DHT22;15176;50.844;4.412;2023-04-03T13:39:25;18.10;38.10
27795;DHT22;15176;50.844;4.412;2023-04-03T13:41:54;17.80;38.00
27795;DHT22;15176;50.844;4.412;2023-04-03T13:46:59;17.30;37.70
27795;DHT22;15176;50.844;4.412;2023-04-03T13:51:52;16.70;39.90
27795;DHT22;15176;50.844;4.412;2023-04-03T13:54:33;17.10;40.80
27795;DHT22;15176;50.844;4.412;2023-04-03T13:57:13;17.00;40.20
27795;DHT22;15176;50.844;4.412;2023-04-03T13:59:40;17.20;40.20
27795;DHT22;15176;50.844;4.412;2023-04-03T14:02:16;17.60;39.90
27795;DHT22;15176;50.844;4.412;2023-04-03T14:04:53;17.50;39.90
27795;DHT22;15176;50.844;4.412;2023-04-03T14:07:23;17.40;39.80
27795;DHT22;15176;50.844;4.412;2023-04-03T14:09:50;16.80;40.50
27795;DHT22;15176;50.844;4.412;2023-04-03T14:12:32;16.50;40.90
27795;DHT22;15176;50.844;4.412;2023-04-03T14:15:20;17.00;40.20
27795;DHT22;15176;50.844;4.412;2023-04-03T14:17:49;16.70;41.00
27795;DHT22;15176;50.844;4.412;2023-04-03T14:20:22;17.00;41.90
27795;DHT22;15176;50.844;4.412;2023-04-03T14:22:50;16.90;40.00
27795;DHT22;15176;50.844;4.412;2023-04-03T14:25:17;17.00;40.00
27795;DHT22;15176;50.844;4.412;2023-04-03T14:27:47;17.10;40.30
27795;DHT22;15176;50.844;4.412;2023-04-03T14:30:21;16.60;39.70
27795;DHT22;15176;50.844;4.412;2023-04-03T14:32:48;16.20;40.40
27795;DHT22;15176;50.844;4.412;2023-04-03T14:35:14;16.50;42.10
27795;DHT22;15176;50.844;4.412;2023-04-03T14:37:40;16.90;41.00
27795;DHT22;15176;50.844;4.412;2023-04-03T14:40:07;16.90;39.70
27795;DHT22;15176;50.844;4.412;2023-04-03T14:42:35;17.00;41.10
27795;DHT22;15176;50.844;4.412;2023-04-03T14:45:07;16.80;40.20
27795;DHT22;15176;50.844;4.412;2023-04-03T14:47:37;16.70;41.10
27795;DHT22;15176;50.844;4.412;2023-04-03T14:50:07;16.80;41.20
27795;DHT22;15176;50.844;4.412;2023-04-03T14:52:35;16.80;40.30
27795;DHT22;15176;50.844;4.412;2023-04-03T14:55:02;16.70;41.80
27795;DHT22;15176;50.844;4.412;2023-04-03T14:57:30;16.70;41.50
27795;DHT22;15176;50.844;4.412;2023-04-03T14:59:56;16.60;41.60
27795;DHT22;15176;50.844;4.412;2023-04-03T15:02:34;16.70;41.30
27795;DHT22;15176;50.844;4.412;2023-04-03T15:05:02;16.40;41.00
27795;DHT22;15176;50.844;4.412;2023-04-03T15:07:31;16.30;40.50
27795;DHT22;15176;50.844;4.412;2023-04-03T15:09:59;16.10;39.70
27795;DHT22;15176;50.844;4.412;2023-04-03T15:12:26;16.10;41.10
27795;DHT22;15176;50.844;4.412;2023-04-03T15:14:52;15.70;41.40
27795;DHT22;15176;50.844;4.412;2023-04-03T15:17:21;15.70;41.00
27795;DHT22;15176;50.844;4.412;2023-04-03T15:19:48;15.70;42.10
27795;DHT22;15176;50.844;4.412;2023-04-03T15:22:15;16.00;40.50
27795;DHT22;15176;50.844;4.412;2023-04-03T15:24:42;16.00;40.20
27795;DHT22;15176;50.844;4.412;2023-04-03T15:27:08;15.80;40.10
27795;DHT22;15176;50.844;4.412;2023-04-03T15:29:33;15.80;40.90
27795;DHT22;15176;50.844;4.412;2023-04-03T15:31:59;15.80;41.40
27795;DHT22;15176;50.844;4.412;2023-04-03T15:34:25;15.40;41.10
27795;DHT22;15176;50.844;4.412;2023-04-03T15:36:51;15.60;41.20
27795;DHT22;15176;50.844;4.412;2023-04-03T15:39:20;15.60;40.40
27795;DHT22;15176;50.844;4.412;2023-04-03T15:41:46;15.00;40.70
27795;DHT22;15176;50.844;4.412;2023-04-03T15:44:12;14.70;41.80
27795;DHT22;15176;50.844;4.412;2023-04-03T15:46:39;15.10;43.20
27795;DHT22;15176;50.844;4.412;2023-04-03T15:49:05;15.20;42.00
27795;DHT22;15176;50.844;4.412;2023-04-03T15:51:31;15.30;41.50
27795;DHT22;15176;50.844;4.412;2023-04-03T15:53:56;15.10;42.60
27795;DHT22;15176;50.844;4.412;2023-04-03T15:56:24;15.20;42.20
27795;DHT22;15176;50.844;4.412;2023-04-03T15:58:50;15.10;43.70
27795;DHT22;15176;50.844;4.412;2023-04-03T16:01:15;15.20;44.60
27795;DHT22;15176;50.844;4.412;2023-04-03T16:03:42;15.00;44.00
27795;DHT22;15176;50.844;4.412;2023-04-03T16:06:16;15.10;43.70
27795;DHT22;15176;50.844;4.412;2023-04-03T16:08:44;14.70;45.10
27795;DHT22;15176;50.844;4.412;2023-04-03T16:11:11;14.90;45.00
27795;DHT22;15176;50.844;4.412;2023-04-03T16:13:37;14.80;44.80
27795;DHT22;15176;50.844;4.412;2023-04-03T16:16:04;14.60;45.10
27795;DHT22;15176;50.844;4.412;2023-04-03T16:18:31;14.70;45.60
27795;DHT22;15176;50.844;4.412;2023-04-03T16:20:57;14.30;46.60
27795;DHT22;15176;50.844;4.412;2023-04-03T16:23:23;14.40;47.50
27795;DHT22;15176;50.844;4.412;2023-04-03T16:25:49;14.20;47.70
27795;DHT22;15176;50.844;4.412;2023-04-03T16:28:16;14.10;47.50
27795;DHT22;15176;50.844;4.412;2023-04-03T16:30:44;13.70;48.00
27795;DHT22;15176;50.844;4.412;2023-04-03T16:33:11;13.70;48.00
27795;DHT22;15176;50.844;4.412;2023-04-03T16:35:38;13.70;48.70
27795;DHT22;15176;50.844;4.412;2023-04-03T16:38:04;13.90;49.00
27795;DHT22;15176;50.844;4.412;2023-04-03T16:40:30;14.00;48.70
27795;DHT22;15176;50.844;4.412;2023-04-03T16:42:56;14.00;49.00
27795;DHT22;15176;50.844;4.412;2023-04-03T16:45:22;14.00;50.20
27795;DHT22;15176;50.844;4.412;2023-04-03T16:47:47;14.00;49.20
27795;DHT22;15176;50.844;4.412;2023-04-03T16:50:13;13.90;49.40
27795;DHT22;15176;50.844;4.412;2023-04-03T16:52:39;13.90;49.60
27795;DHT22;15176;50.844;4.412;2023-04-03T16:55:05;13.90;49.40
27795;DHT22;15176;50.844;4.412;2023-04-03T16:57:31;13.60;50.30
27795;DHT22;15176;50.844;4.412;2023-04-03T16:59:57;13.60;50.60
27795;DHT22;15176;50.844;4.412;2023-04-03T17:02:23;13.60;51.00
27795;DHT22;15176;50.844;4.412;2023-04-03T17:04:53;13.70;51.20
27795;DHT22;15176;50.844;4.412;2023-04-03T17:07:20;13.80;50.90
27795;DHT22;15176;50.844;4.412;2023-04-03T17:09:47;13.10;50.90
27795;DHT22;15176;50.844;4.412;2023-04-03T17:12:13;12.90;53.90
27795;DHT22;15176;50.844;4.412;2023-04-03T17:14:42;13.00;54.20
27795;DHT22;15176;50.844;4.412;2023-04-03T17:17:09;13.20;52.90
27795;DHT22;15176;50.844;4.412;2023-04-03T17:19:36;13.50;53.20
27795;DHT22;15176;50.844;4.412;2023-04-03T17:22:02;13.30;52.60
27795;DHT22;15176;50.844;4.412;2023-04-03T17:24:28;13.40;52.90
27795;DHT22;15176;50.844;4.412;2023-04-03T17:26:53;13.30;52.10
27795;DHT22;15176;50.844;4.412;2023-04-03T17:29:19;13.30;52.10